Time;durP1;ratioP1;P1;durP2;ratioP2;P2;SDS_P1;SDS_P2;PMS_P1;PMS_P2;Temp;Humidity;BMP_temperature;BMP_pressure;BME280_temperature;BME280_humidity;BME280_pressure;Samples;Min_cycle;Max_cycle;Signal;HPM_P1;HPM_P2
2022/08/27 00:00:12;;;;;;;4.43;2.50;;;;;;;15.49;86.88;101587.50;6160317;23;20005;-85
2022/08/27 00:02:37;;;;;;;5.72;2.25;;;;;;;15.45;87.32;101597.22;6159847;23;20005;-85
2022/08/27 00:05:06;;;;;;;4.87;2.40;;;;;;;15.40;87.15;101594.38;6111223;23;20047;-85
2022/08/27 00:07:34;;;;;;;7.38;2.63;;;;;;;15.35;87.58;101591.47;6160179;23;20017;-84
2022/08/27 00:10:02;;;;;;;11.23;2.60;;;;;;;15.32;88.16;101589.19;6160193;23;20009;-84
2022/08/27 00:12:29;;;;;;;5.30;2.10;;;;;;;15.28;88.77;101586.09;6136233;23;20071;-86
2022/08/27 00:14:54;;;;;;;6.65;2.33;;;;;;;15.22;89.55;101593.31;6160270;23;20080;-85
2022/08/27 00:17:20;;;;;;;6.90;2.23;;;;;;;15.19;89.71;101584.72;6135697;23;20331;-84
2022/08/27 00:19:45;;;;;;;7.75;2.78;;;;;;;15.14;89.32;101588.13;6186658;23;20009;-85
2022/08/27 00:22:15;;;;;;;6.90;2.33;;;;;;;15.07;89.44;101576.44;6160119;23;20009;-84
2022/08/27 00:24:41;;;;;;;6.70;2.40;;;;;;;15.03;89.72;101584.28;6136245;23;20104;-85
2022/08/27 00:27:09;;;;;;;6.83;2.50;;;;;;;14.99;89.92;101582.22;6160062;23;20083;-84
2022/08/27 00:29:34;;;;;;;7.60;2.40;;;;;;;14.93;90.64;101578.50;6159660;23;20092;-85
2022/08/27 00:32:03;;;;;;;7.17;2.67;;;;;;;14.90;90.54;101579.78;6159684;23;20099;-84
2022/08/27 00:34:30;;;;;;;8.85;3.08;;;;;;;14.86;90.43;101575.81;6159601;23;20423;-85
2022/08/27 00:36:58;;;;;;;9.07;2.65;;;;;;;14.82;90.93;101574.63;6159492;23;20024;-84
2022/08/27 00:39:24;;;;;;;8.27;2.85;;;;;;;14.80;91.13;101573.19;6159748;23;20040;-85
2022/08/27 00:41:52;;;;;;;11.30;2.93;;;;;;;14.74;91.30;101583.94;6160007;23;20009;-85
2022/08/27 00:44:23;;;;;;;7.55;2.90;;;;;;;14.70;91.61;101581.88;6159545;23;20180;-85
2022/08/27 00:46:52;;;;;;;6.38;3.08;;;;;;;14.66;91.95;101584.22;6135809;23;20044;-85
2022/08/27 00:49:35;;;;;;;5.88;2.50;;;;;;;14.65;92.13;101579.00;6159834;23;20005;-85
2022/08/27 00:52:21;;;;;;;9.33;2.70;;;;;;;14.62;91.86;101579.44;6159977;23;20013;-85
2022/08/27 00:54:50;;;;;;;9.27;3.10;;;;;;;14.56;92.24;101578.41;6185049;23;20005;-85
2022/08/27 00:57:18;;;;;;;6.68;2.63;;;;;;;14.52;91.97;101579.91;6159827;23;20012;-85
2022/08/27 00:59:45;;;;;;;6.57;2.88;;;;;;;14.48;92.43;101584.16;6159527;23;20005;-87
2022/08/27 01:02:20;;;;;;;7.95;2.67;;;;;;;14.43;92.82;101587.56;6160162;23;20087;-85
2022/08/27 01:05:03;;;;;;;7.20;3.00;;;;;;;14.41;93.05;101584.22;6185956;23;20005;-84
2022/08/27 01:07:35;;;;;;;8.80;3.10;;;;;;;14.37;93.53;101580.25;6159656;23;20059;-85
2022/08/27 01:10:02;;;;;;;5.90;2.83;;;;;;;14.34;93.58;101570.63;6186287;23;20005;-84
2022/08/27 01:12:32;;;;;;;9.30;3.15;;;;;;;14.31;93.34;101578.44;6159446;23;20084;-84
2022/08/27 01:14:58;;;;;;;10.85;3.65;;;;;;;14.28;93.44;101579.69;6159336;23;20013;-84
2022/08/27 01:17:27;;;;;;;11.30;3.37;;;;;;;14.23;93.97;101571.31;6159850;23;20011;-85
2022/08/27 01:19:58;;;;;;;5.30;3.00;;;;;;;14.21;93.93;101574.28;6159508;23;20414;-85
2022/08/27 01:22:44;;;;;;;8.93;3.60;;;;;;;14.14;94.15;101573.53;6159454;23;20076;-84
2022/08/27 01:25:13;;;;;;;5.88;3.83;;;;;;;14.11;94.75;101576.66;6186410;23;20009;-85
2022/08/27 01:27:40;;;;;;;6.00;3.55;;;;;;;14.07;95.36;101578.19;6159089;23;20005;-85
2022/08/27 01:30:10;;;;;;;7.80;3.47;;;;;;;14.04;95.56;101565.81;6159881;23;20012;-85
2022/08/27 01:32:41;;;;;;;8.98;3.80;;;;;;;14.04;95.87;101565.00;6159092;23;20016;-85
2022/08/27 01:35:09;;;;;;;14.38;4.35;;;;;;;13.98;95.43;101563.97;6159674;23;20013;-84
2022/08/27 01:37:38;;;;;;;7.97;3.60;;;;;;;13.98;95.64;101568.56;6159570;23;20079;-85
2022/08/27 01:40:04;;;;;;;6.95;4.05;;;;;;;13.97;95.99;101575.09;6160183;23;20454;-85
2022/08/27 01:42:34;;;;;;;8.77;3.60;;;;;;;13.94;96.14;101572.81;6184368;23;20474;-85
2022/08/27 01:45:07;;;;;;;9.38;3.65;;;;;;;13.92;96.30;101569.47;6184542;23;20009;-85
2022/08/27 01:47:34;;;;;;;11.35;3.20;;;;;;;13.87;96.22;101570.13;6185663;23;20033;-84
2022/08/27 01:50:03;;;;;;;8.25;4.00;;;;;;;13.86;96.24;101560.25;6184404;23;20001;-85
2022/08/27 01:52:30;;;;;;;7.07;3.88;;;;;;;13.85;96.70;101572.25;6184482;23;20427;-84
2022/08/27 01:54:56;;;;;;;8.57;3.73;;;;;;;13.82;96.93;101562.59;6184462;23;20012;-85
2022/08/27 01:57:22;;;;;;;9.80;3.65;;;;;;;13.82;97.04;101573.50;6185570;23;20012;-85
2022/08/27 01:59:48;;;;;;;9.38;4.50;;;;;;;13.80;96.62;101566.59;6184152;23;20009;-85
2022/08/27 02:02:15;;;;;;;9.17;4.10;;;;;;;13.78;96.96;101572.28;6184410;23;20427;-85
2022/08/27 02:04:41;;;;;;;9.90;4.30;;;;;;;13.76;97.18;101570.81;6183588;23;20087;-85
2022/08/27 02:07:10;;;;;;;9.48;3.92;;;;;;;13.74;97.31;101560.13;6186029;23;20013;-84
2022/08/27 02:09:35;;;;;;;9.18;4.05;;;;;;;13.73;97.76;101563.06;6187370;23;20084;-85
2022/08/27 02:12:03;;;;;;;10.80;4.30;;;;;;;13.69;97.79;101557.22;6185887;23;20047;-85
2022/08/27 02:14:32;;;;;;;9.90;4.50;;;;;;;13.66;97.64;101563.94;6186170;23;20005;-84
2022/08/27 02:17:15;;;;;;;10.52;4.30;;;;;;;13.64;97.84;101555.16;6161961;23;20041;-85
2022/08/27 02:19:44;;;;;;;10.63;4.37;;;;;;;13.61;97.39;101560.19;6186176;23;20009;-85
2022/08/27 02:22:11;;;;;;;10.63;4.25;;;;;;;13.59;97.67;101551.41;6186783;23;20009;-85
2022/08/27 02:24:40;;;;;;;8.25;4.15;;;;;;;13.60;98.43;101553.94;6186151;23;20044;-85
2022/08/27 02:27:07;;;;;;;10.48;4.63;;;;;;;13.60;98.40;101553.94;6185691;23;20458;-85
2022/08/27 02:29:33;;;;;;;7.25;4.25;;;;;;;13.55;98.91;101548.28;6161162;23;20100;-84
2022/08/27 02:32:00;;;;;;;10.73;4.80;;;;;;;13.51;98.59;101545.16;6186338;23;20005;-85
2022/08/27 02:34:26;;;;;;;8.27;4.53;;;;;;;13.45;98.35;101540.59;6185770;23;20025;-85
2022/08/27 02:36:54;;;;;;;9.40;4.88;;;;;;;13.45;98.69;101547.91;6185845;23;20064;-84
2022/08/27 02:39:23;;;;;;;9.80;4.53;;;;;;;13.45;99.08;101542.47;6185515;23;20351;-85
2022/08/27 02:41:49;;;;;;;11.13;5.40;;;;;;;13.44;99.13;101535.34;6186058;23;20076;-85
2022/08/27 02:44:14;;;;;;;9.43;5.40;;;;;;;13.41;98.69;101543.97;6187061;23;20029;-85
2022/08/27 02:46:42;;;;;;;7.77;5.00;;;;;;;13.42;98.70;101543.75;6160734;23;20268;-84
2022/08/27 02:49:08;;;;;;;12.23;5.55;;;;;;;13.40;98.67;101548.56;6161099;23;20070;-85
2022/08/27 02:51:35;;;;;;;11.93;5.80;;;;;;;13.45;98.91;101543.31;6186033;23;20001;-85
2022/08/27 02:54:01;;;;;;;10.93;5.93;;;;;;;13.47;98.39;101546.66;6185924;23;20005;-84
2022/08/27 02:56:37;;;;;;;9.90;5.60;;;;;;;13.53;98.30;101550.41;6186058;23;20016;-85
2022/08/27 02:59:03;;;;;;;8.93;5.55;;;;;;;13.60;98.36;101539.47;6185922;23;20036;-85
2022/08/27 03:01:29;;;;;;;13.55;5.75;;;;;;;13.70;98.36;101550.72;6185376;23;20490;-85
2022/08/27 03:03:59;;;;;;;11.90;5.13;;;;;;;13.74;98.02;101554.66;6185317;23;20020;-84
2022/08/27 03:06:30;;;;;;;10.48;5.45;;;;;;;13.79;97.37;101551.28;6185638;23;20001;-85
2022/08/27 03:08:58;;;;;;;10.15;5.60;;;;;;;13.88;97.50;101557.31;6160767;23;20009;-84
2022/08/27 03:11:30;;;;;;;7.82;5.40;;;;;;;13.94;97.76;101548.28;6185688;23;20065;-85
2022/08/27 03:14:02;;;;;;;10.32;5.20;;;;;;;14.01;97.10;101544.44;6185167;23;20008;-84
2022/08/27 03:16:33;;;;;;;9.30;4.70;;;;;;;14.09;96.74;101546.03;6185897;23;20004;-85
2022/08/27 03:19:05;;;;;;;7.88;5.10;;;;;;;14.16;97.02;101551.47;6185586;23;20005;-85
2022/08/27 03:21:34;;;;;;;12.18;5.43;;;;;;;14.21;96.56;101555.16;6185693;23;20020;-85
2022/08/27 03:24:00;;;;;;;10.55;5.13;;;;;;;14.20;95.47;101550.78;6161446;23;20012;-85
2022/08/27 03:26:30;;;;;;;8.40;4.68;;;;;;;14.25;95.79;101550.13;6185507;23;20020;-84
2022/08/27 03:28:59;;;;;;;11.77;4.90;;;;;;;14.27;95.55;101555.34;6185137;23;20021;-85
2022/08/27 03:31:31;;;;;;;10.68;4.88;;;;;;;14.27;95.16;101558.09;6184925;23;20080;-84
2022/08/27 03:34:08;;;;;;;9.00;5.10;;;;;;;14.24;94.86;101551.16;6184939;23;20013;-85
2022/08/27 03:36:33;;;;;;;9.70;5.28;;;;;;;14.24;94.82;101550.34;6185448;23;20020;-85
2022/08/27 03:38:59;;;;;;;12.20;4.90;;;;;;;14.20;95.42;101547.22;6185206;23;20009;-85
2022/08/27 03:41:27;;;;;;;8.40;4.97;;;;;;;14.17;95.54;101548.50;6185013;23;20009;-85
2022/08/27 03:43:58;;;;;;;10.63;4.88;;;;;;;14.13;95.59;101547.28;6185036;23;20016;-84
2022/08/27 03:46:30;;;;;;;12.70;5.82;;;;;;;14.07;95.97;101555.50;6185031;23;20041;-85
2022/08/27 03:48:56;;;;;;;11.70;5.25;;;;;;;14.04;95.92;101565.00;6185040;23;20063;-84
2022/08/27 03:51:27;;;;;;;9.07;5.27;;;;;;;13.99;96.05;101559.34;6185547;23;20013;-84
2022/08/27 03:54:18;;;;;;;13.55;5.50;;;;;;;13.98;96.13;101560.38;6185149;23;20113;-85
2022/08/27 03:56:44;;;;;;;10.40;5.40;;;;;;;13.98;96.59;101563.13;6186499;23;20057;-85
2022/08/27 03:59:14;;;;;;;9.87;5.37;;;;;;;13.99;96.96;101554.72;6185112;23;20104;-85
2022/08/27 04:01:42;;;;;;;10.38;5.47;;;;;;;14.00;96.91;101547.38;6184988;23;20009;-85
2022/08/27 04:04:14;;;;;;;9.10;5.60;;;;;;;14.03;97.40;101552.41;6184658;23;20009;-85
2022/08/27 04:06:40;;;;;;;9.20;5.25;;;;;;;14.03;96.75;101541.47;6185235;23;20012;-84
2022/08/27 04:09:08;;;;;;;14.83;5.37;;;;;;;14.05;97.11;101553.00;6185074;23;20390;-85
2022/08/27 04:11:34;;;;;;;9.65;5.18;;;;;;;14.06;97.28;101549.22;6160719;23;20052;-84
2022/08/27 04:14:05;;;;;;;11.02;5.22;;;;;;;14.07;97.19;101556.34;6184585;23;20067;-85
2022/08/27 04:16:48;;;;;;;7.83;4.77;;;;;;;14.07;97.50;101550.03;6185137;23;20013;-85
2022/08/27 04:19:23;;;;;;;9.10;4.80;;;;;;;14.04;97.00;101549.44;6182276;23;20068;-85
2022/08/27 04:21:49;;;;;;;12.95;5.20;;;;;;;14.02;97.24;101550.72;6185156;23;20009;-85
2022/08/27 04:24:14;;;;;;;9.45;5.28;;;;;;;13.95;97.54;101544.47;6184500;23;20019;-85
2022/08/27 04:26:41;;;;;;;11.33;4.90;;;;;;;13.89;97.79;101550.81;6184256;23;20009;-85
2022/08/27 04:29:09;;;;;;;11.07;5.55;;;;;;;13.86;98.65;101552.94;6185323;23;20029;-85
2022/08/27 04:31:38;;;;;;;8.00;4.72;;;;;;;13.79;98.37;101551.28;6184921;23;20113;-85
2022/08/27 04:34:06;;;;;;;10.10;5.63;;;;;;;13.75;98.51;101550.91;6185557;23;20028;-85
2022/08/27 04:36:32;;;;;;;11.03;6.20;;;;;;;13.73;98.32;101549.44;6184266;23;20012;-84
2022/08/27 04:39:00;;;;;;;8.80;5.32;;;;;;;13.67;98.74;101549.28;6160005;23;20024;-85
2022/08/27 04:41:32;;;;;;;14.30;5.80;;;;;;;13.67;98.82;101562.91;6184765;23;20416;-85
2022/08/27 04:44:03;;;;;;;11.47;5.73;;;;;;;13.66;99.02;101557.69;6185162;23;20009;-84
2022/08/27 04:46:33;;;;;;;12.07;5.72;;;;;;;13.66;99.46;101560.41;6184988;23;20009;-84
2022/08/27 04:49:01;;;;;;;9.40;5.40;;;;;;;13.66;100.00;101563.13;6184716;23;20009;-84
2022/08/27 04:51:30;;;;;;;10.77;5.57;;;;;;;13.64;99.74;101559.75;6184393;23;20016;-84
2022/08/27 04:54:01;;;;;;;11.00;5.68;;;;;;;13.70;100.00;101567.09;6184844;23;20088;-84
2022/08/27 04:56:27;;;;;;;12.10;6.30;;;;;;;13.72;100.00;101561.41;6160658;23;20053;-85
2022/08/27 04:58:53;;;;;;;10.85;6.50;;;;;;;13.78;100.00;101566.81;6184309;23;20084;-84
2022/08/27 05:01:24;;;;;;;12.88;5.97;;;;;;;13.86;99.88;101566.56;6184779;23;20039;-85
2022/08/27 05:03:53;;;;;;;11.23;6.15;;;;;;;13.97;99.71;101564.19;6184348;23;20009;-85
2022/08/27 05:06:19;;;;;;;13.02;6.50;;;;;;;14.01;98.83;101571.72;6184280;23;20005;-85
2022/08/27 05:09:14;;;;;;;12.77;5.70;;;;;;;14.09;99.02;101569.78;6184579;23;20088;-85
2022/08/27 05:11:40;;;;;;;9.25;5.93;;;;;;;14.15;98.66;101566.97;6184690;23;20012;-85
2022/08/27 05:14:15;;;;;;;9.48;6.22;;;;;;;14.14;98.15;101565.34;6184602;23;20009;-85
2022/08/27 05:16:41;;;;;;;10.63;5.85;;;;;;;14.17;97.90;101572.22;6184883;23;20009;-85
2022/08/27 05:19:09;;;;;;;9.95;6.03;;;;;;;14.19;97.91;101564.66;6184462;23;20012;-84
2022/08/27 05:21:37;;;;;;;13.53;6.17;;;;;;;14.25;97.58;101571.97;6184213;23;20331;-85
2022/08/27 05:24:15;;;;;;;13.30;6.13;;;;;;;14.34;97.08;101567.06;6184465;23;20008;-85
2022/08/27 05:26:52;;;;;;;13.48;6.18;;;;;;;14.46;96.72;101568.00;6184578;23;20428;-85
2022/08/27 05:29:18;;;;;;;12.50;5.72;;;;;;;14.60;96.19;101568.72;6184636;23;20012;-85
2022/08/27 05:31:48;;;;;;;14.93;6.27;;;;;;;14.70;96.14;101570.94;6184597;23;20389;-85
2022/08/27 05:34:20;;;;;;;15.43;6.22;;;;;;;14.83;95.68;101572.72;6184221;23;20013;-85
2022/08/27 05:36:45;;;;;;;16.15;6.35;;;;;;;14.93;95.38;101569.47;6184603;23;20108;-85
2022/08/27 05:39:17;;;;;;;9.90;5.67;;;;;;;14.99;94.63;101571.28;6183822;23;20036;-86
2022/08/27 05:41:47;;;;;;;13.18;6.53;;;;;;;15.04;94.28;101574.16;6186180;23;20016;-85
2022/08/27 05:44:20;;;;;;;11.85;6.13;;;;;;;15.05;93.46;101584.03;6161779;23;20427;-86
2022/08/27 05:46:45;;;;;;;14.97;6.07;;;;;;;15.12;93.74;101576.59;6186493;23;20005;-87
2022/08/27 05:49:13;;;;;;;9.57;5.68;;;;;;;15.17;93.87;101571.28;6161745;23;20098;-89
2022/08/27 05:51:40;;;;;;;11.35;6.15;;;;;;;15.23;93.29;101573.09;6186485;23;20055;-88
2022/08/27 05:54:13;;;;;;;12.63;6.50;;;;;;;15.35;93.20;101583.25;6187930;23;20032;-87
2022/08/27 05:56:40;;;;;;;10.52;6.30;;;;;;;15.44;92.70;101573.69;6185910;23;20052;-88
2022/08/27 06:01:52;;;;;;;9.48;5.72;;;;;;;15.70;91.25;101582.59;6188028;23;20068;-87
2022/08/27 06:04:19;;;;;;;14.93;6.25;;;;;;;15.80;90.77;101582.91;6160117;23;20009;-88
2022/08/27 06:06:45;;;;;;;9.37;5.87;;;;;;;15.89;90.03;101581.50;6186688;23;20009;-87
2022/08/27 06:09:16;;;;;;;10.57;5.40;;;;;;;16.01;89.88;101589.75;6186421;23;20155;-88
2022/08/27 06:11:41;;;;;;;9.18;5.25;;;;;;;16.10;89.66;101588.34;6186783;23;20009;-87
2022/08/27 06:14:07;;;;;;;16.80;6.10;;;;;;;16.21;89.38;101596.81;6185877;23;20088;-87
2022/08/27 06:16:43;;;;;;;11.13;6.65;;;;;;;16.28;88.64;101598.41;6186201;23;20055;-87
2022/08/27 06:19:15;;;;;;;10.05;5.80;;;;;;;16.36;88.39;101596.38;6185949;23;20071;-87
2022/08/27 06:21:41;;;;;;;11.82;5.90;;;;;;;16.45;87.74;101595.78;6186112;23;20091;-86
2022/08/27 06:24:11;;;;;;;9.90;5.83;;;;;;;16.52;87.14;101601.16;6185610;23;20044;-87
2022/08/27 06:26:38;;;;;;;13.20;6.03;;;;;;;16.59;86.71;101590.09;6187994;23;20001;-87
2022/08/27 06:29:12;;;;;;;8.57;6.30;;;;;;;16.65;86.42;101600.09;6185959;23;20009;-87
2022/08/27 06:31:38;;;;;;;10.55;6.80;;;;;;;16.73;86.57;101591.53;6185657;23;20431;-87
2022/08/27 06:34:06;;;;;;;9.57;6.07;;;;;;;16.79;86.05;101593.31;6185549;23;20016;-87
2022/08/27 06:36:37;;;;;;;11.43;5.88;;;;;;;16.88;85.86;101596.56;6185150;23;20017;-87
2022/08/27 06:39:03;;;;;;;11.07;6.40;;;;;;;16.94;85.17;101602.97;6184453;23;20096;-86
2022/08/27 06:41:28;;;;;;;11.80;5.90;;;;;;;17.06;84.84;101603.78;6184289;23;20045;-86
2022/08/27 06:43:57;;;;;;;8.50;6.63;;;;;;;17.17;84.30;101602.94;6134893;23;20469;-87
2022/08/27 06:46:28;;;;;;;10.82;6.72;;;;;;;17.29;83.76;101596.63;6158964;23;20017;-87
2022/08/27 06:48:56;;;;;;;12.93;5.83;;;;;;;17.39;83.36;101595.97;6184151;23;20009;-87
2022/08/27 06:51:25;;;;;;;14.70;6.10;;;;;;;17.44;82.50;101596.09;6185541;23;20013;-87
2022/08/27 06:53:52;;;;;;;9.43;6.10;;;;;;;17.55;82.61;101595.19;6184182;23;20431;-87
2022/08/27 06:56:18;;;;;;;10.90;6.07;;;;;;;17.71;82.28;101599.91;6185509;23;20036;-87
2022/08/27 06:58:44;;;;;;;9.73;5.93;;;;;;;17.80;81.60;101596.78;6184108;23;20011;-88
2022/08/27 07:01:18;;;;;;;10.40;5.30;;;;;;;17.91;81.37;101592.34;6184169;23;20036;-88
2022/08/27 07:03:45;;;;;;;12.50;5.45;;;;;;;17.97;80.29;101583.13;6183374;23;20426;-88
2022/08/27 07:06:13;;;;;;;13.23;5.38;;;;;;;18.09;80.08;101591.31;6184192;23;20009;-87
2022/08/27 07:08:42;;;;;;;8.65;5.45;;;;;;;18.20;79.68;101595.88;6183678;23;20048;-89
2022/08/27 07:11:10;;;;;;;13.07;5.60;;;;;;;18.24;79.58;101600.63;6183307;23;20001;-89
2022/08/27 07:13:40;;;;;;;14.75;5.65;;;;;;;18.36;79.39;101597.78;6182290;23;20012;-88
2022/08/27 07:16:10;;;;;;;8.45;5.15;;;;;;;18.50;78.44;101600.22;6185785;23;20005;-87
2022/08/27 07:18:37;;;;;;;10.88;5.07;;;;;;;18.61;77.84;101607.53;6184356;23;20009;-87
2022/08/27 07:21:03;;;;;;;10.00;5.30;;;;;;;18.73;77.51;101600.06;6185250;23;20032;-87
2022/08/27 07:23:32;;;;;;;6.77;4.83;;;;;;;18.84;77.58;101601.03;6183448;23;20331;-88
2022/08/27 07:25:58;;;;;;;10.07;5.20;;;;;;;18.95;76.02;101601.19;6183967;23;20087;-87
2022/08/27 07:28:27;;;;;;;12.23;5.15;;;;;;;19.03;75.47;101606.25;6183703;23;20032;-87
2022/08/27 07:30:55;;;;;;;10.15;4.97;;;;;;;19.04;74.82;101603.25;6183541;23;20001;-87
2022/08/27 07:33:20;;;;;;;9.07;4.63;;;;;;;19.05;74.57;101599.41;6183141;23;20283;-87
2022/08/27 07:35:48;;;;;;;8.58;4.43;;;;;;;19.18;74.72;101602.91;5978014;23;4237114;-87
2022/08/27 07:38:14;;;;;;;12.07;4.90;;;;;;;19.32;74.15;101601.41;6184607;23;20478;-88
2022/08/27 07:40:43;;;;;;;10.07;4.60;;;;;;;19.45;73.85;101601.03;6184889;23;20068;-86
2022/08/27 07:45:55;;;;;;;7.50;3.90;;;;;;;19.41;72.60;101602.66;6186874;23;20020;-88
2022/08/27 07:48:31;;;;;;;10.27;4.20;;;;;;;19.30;72.43;101614.59;6185634;23;20343;-94
2022/08/27 07:51:03;;;;;;;10.05;3.95;;;;;;;19.18;71.64;101611.97;6187131;23;20005;-91
2022/08/27 07:53:43;;;;;;;8.83;3.93;;;;;;;19.08;73.22;101614.59;6185670;23;20009;-91
2022/08/27 07:56:45;;;;;;;;;;;;;;;;;;;;;
2022/08/27 07:59:29;;;;;;;11.18;4.10;;;;;;;19.13;72.81;101613.81;6186917;23;20084;-91
2022/08/27 08:01:56;;;;;;;9.15;3.60;;;;;;;19.31;71.75;101610.78;6163816;23;20008;-92
2022/08/27 08:04:41;;;;;;;;;;;;;;;;;;;;;
2022/08/27 08:07:07;;;;;;;6.73;3.97;;;;;;;19.64;70.33;101614.47;6186120;23;20080;-92
2022/08/27 08:09:39;;;;;;;6.80;3.83;;;;;;;19.79;70.26;101625.66;6186352;23;20176;-93
2022/08/27 08:12:22;;;;;;;8.70;3.70;;;;;;;19.93;69.90;101619.75;6186203;23;20013;-94
2022/08/27 08:15:12;;;;;;;5.32;3.20;;;;;;;20.22;69.53;101611.22;6186421;23;20060;-95
2022/08/27 08:17:48;;;;;;;6.97;3.30;;;;;;;20.48;67.25;101617.78;6187475;23;20001;-94
2022/08/27 08:20:21;;;;;;;7.03;3.38;;;;;;;20.64;66.38;101610.47;6186091;23;20083;-94
2022/08/27 08:22:49;;;;;;;6.50;3.00;;;;;;;20.59;64.47;101618.69;6185786;23;20423;-95
2022/08/27 08:25:39;;;;;;;7.20;3.60;;;;;;;20.44;65.26;101616.63;6187538;23;20009;-96
2022/08/27 08:28:17;;;;;;;7.80;3.30;;;;;;;20.23;66.22;101616.47;6185137;23;20020;-95
2022/08/27 08:31:19;;;;;;;9.10;3.33;;;;;;;19.98;65.50;101615.13;6136044;23;20013;-93
2022/08/27 08:33:49;;;;;;;7.40;3.40;;;;;;;19.79;65.93;101625.66;6185347;23;20012;-92
2022/08/27 08:36:27;;;;;;;;;;;;;;;;;;;;;
2022/08/27 08:38:55;;;;;;;7.33;3.67;;;;;;;19.64;66.74;101629.03;6186146;23;20092;-94
2022/08/27 08:41:30;;;;;;;8.13;3.83;;;;;;;19.60;66.80;101621.56;6160105;23;20009;-94
2022/08/27 08:44:03;;;;;;;8.48;3.30;;;;;;;19.51;67.09;101618.44;6185782;23;20109;-94
2022/08/27 08:46:41;;;;;;;7.40;3.72;;;;;;;19.50;67.50;101619.50;6185290;23;20009;-92
2022/08/27 08:49:30;;;;;;;7.03;3.75;;;;;;;19.57;68.03;101622.09;6185438;23;20009;-91
2022/08/27 08:52:26;;;;;;;4.23;3.47;;;;;;;19.68;67.90;101618.38;6183948;23;20160;-92
2022/08/27 08:55:10;;;;;;;7.30;3.92;;;;;;;19.94;66.69;101619.47;6185115;23;20092;-94
2022/08/27 08:58:16;;;;;;;;;;;;;;;;;;;;;
2022/08/27 09:00:58;;;;;;;7.20;3.20;;;;;;;20.75;63.94;101627.94;6187337;23;20100;-94
2022/08/27 09:03:34;;;;;;;7.00;3.13;;;;;;;21.20;61.50;101626.56;6185377;23;20004;-95
2022/08/27 09:09:28;;;;;;;5.22;2.55;;;;;;;21.94;57.52;101621.88;6187082;23;20096;-95
2022/08/27 09:12:14;;;;;;;6.55;2.90;;;;;;;22.33;58.72;101621.38;6067223;23;20038;-94
2022/08/27 09:14:59;;;;;;;5.63;2.50;;;;;;;22.42;56.53;101618.88;6183199;23;20013;-94
2022/08/27 09:17:44;;;;;;;4.82;2.10;;;;;;;22.25;56.35;101627.44;6187029;23;20012;-95
2022/08/27 09:20:16;;;;;;;6.87;2.20;;;;;;;22.25;53.28;101627.44;6185656;23;20454;-95
2022/08/27 09:26:29;;;;;;;4.78;1.90;;;;;;;22.50;54.41;101632.16;6134357;23;20013;-94
2022/08/27 09:29:42;;;;;;;;;;;;;;;;;;;;;
2022/08/27 09:32:54;;;;;;;;;;;;;;;;;;;;;
2022/08/27 09:35:41;;;;;;;;;;;;;;;;;;;;;
2022/08/27 09:38:33;;;;;;;6.13;2.20;;;;;;;23.52;50.87;101621.13;6038338;23;20105;-95
2022/08/27 09:41:51;;;;;;;4.07;2.03;;;;;;;23.96;50.54;101623.97;6014832;23;20462;-95
2022/08/27 09:47:22;;;;;;;3.63;2.30;;;;;;;23.45;49.09;101627.00;6141343;23;20012;-94
2022/08/27 09:50:28;;;;;;;;;;;;;;;;;;;;;
2022/08/27 09:53:18;;;;;;;;;;;;;;;;;;;;;
2022/08/27 09:56:32;;;;;;;3.88;1.90;;;;;;;22.30;51.58;101637.66;6134557;23;20093;-94
2022/08/27 09:59:50;;;;;;;5.47;2.20;;;;;;;22.28;52.58;101624.13;6095772;23;20006;-95
2022/08/27 10:02:21;;;;;;;4.03;1.80;;;;;;;22.34;52.08;101630.50;6066562;23;20007;-95
2022/08/27 10:04:52;;;;;;;4.07;2.13;;;;;;;22.44;51.04;101627.75;6066615;23;20517;-94
2022/08/27 10:07:43;;;;;;;3.60;1.80;;;;;;;22.67;52.17;101633.81;6081296;23;20012;-95
2022/08/27 10:11:08;;;;;;;;;;;;;;;;;;;;;
2022/08/27 10:14:13;;;;;;;6.00;2.28;;;;;;;23.67;49.92;101620.25;6141879;23;20092;-95
2022/08/27 10:17:32;;;;;;;;;;;;;;;;;;;;;
2022/08/27 10:20:43;;;;;;;4.90;2.13;;;;;;;24.76;48.32;101615.56;6010361;23;20091;-95
2022/08/27 10:24:04;;;;;;;;;;;;;;;;;;;;;
2022/08/27 10:26:51;;;;;;;4.45;2.58;;;;;;;24.97;45.79;101619.78;6157284;23;20092;-94
2022/08/27 10:29:41;;;;;;;4.85;2.33;;;;;;;24.80;45.42;101617.47;6132049;23;20002;-93
2022/08/27 10:32:47;;;;;;;;;;;;;;;;;;;;;
2022/08/27 10:35:29;;;;;;;6.00;2.90;;;;;;;24.87;45.13;101606.81;6157971;23;20092;-95
2022/08/27 10:38:32;;;;;;;;;;;;;;;;;;;;;
2022/08/27 10:42:12;;;;;;;;;;;;;;;;;;;;;
2022/08/27 10:45:22;;;;;;;;;;;;;;;;;;;;;
2022/08/27 10:48:52;;;;;;;4.82;2.80;;;;;;;25.29;46.40;101600.81;6188583;23;20057;-95
2022/08/27 10:55:52;;;;;;;;;;;;;;;;;;;;;
2022/08/27 10:58:18;;;;;;;4.95;2.47;;;;;;;25.18;43.34;101606.47;6185067;23;20005;-89
2022/08/27 11:01:10;;;;;;;5.28;2.58;;;;;;;25.06;45.51;101605.25;6185981;23;20032;-86
2022/08/27 11:03:53;;;;;;;6.38;2.85;;;;;;;24.97;45.83;101600.34;6184850;23;20015;-87
2022/08/27 11:06:39;;;;;;;4.17;2.30;;;;;;;24.83;45.24;101607.72;6185817;23;20020;-87
2022/08/27 11:09:18;;;;;;;4.82;2.63;;;;;;;24.66;44.73;101602.63;6185138;23;20001;-86
2022/08/27 11:12:15;;;;;;;4.93;2.20;;;;;;;24.71;46.24;101604.53;6185758;23;20016;-86
2022/08/27 11:14:59;;;;;;;13.02;2.83;;;;;;;24.75;45.78;101609.19;6185598;23;20503;-86
2022/08/27 11:17:37;;;;;;;4.57;2.45;;;;;;;24.61;44.73;101600.75;6185734;23;20005;-86
2022/08/27 11:20:17;;;;;;;5.57;2.07;;;;;;;24.54;45.01;101603.00;6160749;23;20032;-86
2022/08/27 11:22:52;;;;;;;5.13;2.00;;;;;;;24.65;45.21;101598.19;6185553;23;20383;-86
2022/08/27 11:25:33;;;;;;;5.22;2.05;;;;;;;24.78;44.50;101594.72;6186602;23;20084;-86
2022/08/27 11:28:01;;;;;;;3.22;2.17;;;;;;;25.11;43.35;101597.69;6185369;23;20016;-86
2022/08/27 11:30:45;;;;;;;3.65;2.15;;;;;;;25.45;43.00;101598.69;6185826;23;20442;-86
2022/08/27 11:33:30;;;;;;;4.70;1.90;;;;;;;25.80;42.10;101593.75;6185783;23;20013;-86
2022/08/27 11:36:35;;;;;;;4.97;2.10;;;;;;;26.38;42.90;101592.56;6184724;23;20443;-87
2022/08/27 11:39:38;;;;;;;2.53;1.80;;;;;;;26.81;41.79;101586.81;6165914;23;20096;-86
2022/08/27 11:42:18;;;;;;;4.90;2.00;;;;;;;27.50;40.04;101593.50;6185381;23;20063;-87
2022/08/27 11:44:50;;;;;;;5.28;2.65;;;;;;;27.93;36.70;101582.75;6185024;23;20012;-86
2022/08/27 11:47:27;;;;;;;4.50;1.97;;;;;;;29.89;35.77;101583.75;6185349;23;20017;-86
2022/08/27 11:50:07;;;;;;;4.18;1.77;;;;;;;32.84;31.57;101580.59;6185558;23;20092;-87
2022/08/27 11:53:01;;;;;;;4.38;2.30;;;;;;;32.20;32.83;101575.53;6185085;23;20001;-86
2022/08/27 11:55:35;;;;;;;4.03;2.20;;;;;;;30.50;32.40;101577.25;6186242;23;20427;-87
2022/08/27 11:58:16;;;;;;;3.50;2.00;;;;;;;29.56;35.65;101575.00;6185165;23;20001;-87
2022/08/27 12:00:46;;;;;;;5.23;2.30;;;;;;;28.29;35.53;101573.50;6185134;23;20024;-86
2022/08/27 12:03:21;;;;;;;7.95;2.30;;;;;;;27.79;36.82;101576.41;6186433;23;20541;-87
2022/08/27 12:06:04;;;;;;;4.45;2.78;;;;;;;27.14;37.43;101576.38;6186243;23;20011;-87
2022/08/27 12:08:33;;;;;;;5.03;2.08;;;;;;;26.64;38.24;101569.88;6184555;23;20009;-87
2022/08/27 12:11:06;;;;;;;3.67;1.92;;;;;;;26.23;38.64;101574.19;6160686;23;20080;-86
2022/08/27 12:13:49;;;;;;;7.63;2.07;;;;;;;26.12;40.01;101572.69;6184941;23;20092;-87
2022/08/27 12:16:47;;;;;;;4.13;1.70;;;;;;;26.00;40.48;101571.25;6184458;23;20005;-87
2022/08/27 12:19:40;;;;;;;4.32;1.92;;;;;;;25.73;40.24;101577.44;6184858;23;20488;-86
2022/08/27 12:22:23;;;;;;;2.97;2.00;;;;;;;25.66;40.74;101574.22;6184956;23;20012;-86
2022/08/27 12:24:48;;;;;;;6.47;2.08;;;;;;;25.63;39.86;101570.09;6185030;23;20063;-86
2022/08/27 12:27:30;;;;;;;4.00;1.93;;;;;;;25.82;40.58;101575.66;6184888;23;20360;-86
2022/08/27 12:30:32;;;;;;;3.78;1.90;;;;;;;26.28;40.78;101579.69;6186064;23;20005;-86
2022/08/27 12:33:12;;;;;;;4.18;1.70;;;;;;;26.79;39.04;101566.81;6186593;23;20100;-86
2022/08/27 12:35:47;;;;;;;4.20;1.73;;;;;;;27.13;38.04;101568.34;6184220;23;20009;-87
2022/08/27 12:38:38;;;;;;;3.50;1.70;;;;;;;27.62;36.66;101561.19;6184409;23;20013;-87
2022/08/27 12:41:07;;;;;;;4.50;2.08;;;;;;;28.29;36.06;101564.31;6168686;23;20011;-87